Terminal Aerodrome Forecast
Issued by NWS Sioux Falls, SD

Home | Current Version | Previous Version | Text Only | Print | Product List | Glossary On
Versions: 1 2 3 4 5 6 7 8 9 10 11 12 13 14 15 16 17 18 19 20 21 22 23 24 25 26 27
000
FTUS43 KFSD 042320
TAFFSD
TAF
KFSD 042320Z 0500/0524 23005KT P6SM SKC
     FM050500 18005KT P6SM BKN150
     FM050900 17013KT P6SM OVC100
     FM051900 26013KT P6SM BKN050
     FM052100 27013G23KT P6SM BKN025=

USA.gov is the U.S. government's official web portal to all federal, state and local government web resources and services.